sensor_id;sensor_type;location;lat;lon;timestamp;P1;durP1;ratioP1;P2;durP2;ratioP2
67344;SDS011;54230;52.402;6.276;2022-10-22T00:00:00;12.2;;;7.0;;
67344;SDS011;54230;52.402;6.276;2022-10-22T00:05:00;13.0;;;6.3;;
67344;SDS011;54230;52.402;6.276;2022-10-22T00:10:00;15.1;;;7.0;;
67344;SDS011;54230;52.402;6.276;2022-10-22T00:15:00;13.3;;;6.0;;
67344;SDS011;54230;52.402;6.276;2022-10-22T00:20:00;11.7;;;6.9;;
67344;SDS011;54230;52.402;6.276;2022-10-22T00:25:00;13.0;;;6.7;;
67344;SDS011;54230;52.402;6.276;2022-10-22T00:30:00;14.0;;;7.3;;
67344;SDS011;54230;52.402;6.276;2022-10-22T00:35:00;12.3;;;6.8;;
67344;SDS011;54230;52.402;6.276;2022-10-22T00:40:00;12.6;;;7.2;;
67344;SDS011;54230;52.402;6.276;2022-10-22T00:45:02;12.8;;;6.7;;
67344;SDS011;54230;52.402;6.276;2022-10-22T00:50:00;12.1;;;7.0;;
67344;SDS011;54230;52.402;6.276;2022-10-22T00:55:00;12.5;;;7.0;;
67344;SDS011;54230;52.402;6.276;2022-10-22T01:00:00;13.0;;;6.7;;
67344;SDS011;54230;52.402;6.276;2022-10-22T01:05:00;12.5;;;6.6;;
67344;SDS011;54230;52.402;6.276;2022-10-22T01:10:02;11.6;;;6.6;;
67344;SDS011;54230;52.402;6.276;2022-10-22T01:15:02;11.3;;;6.9;;
67344;SDS011;54230;52.402;6.276;2022-10-22T01:20:02;16.5;;;6.7;;
67344;SDS011;54230;52.402;6.276;2022-10-22T01:25:02;14.6;;;6.7;;
67344;SDS011;54230;52.402;6.276;2022-10-22T01:30:00;13.9;;;7.1;;
67344;SDS011;54230;52.402;6.276;2022-10-22T01:35:04;14.0;;;6.7;;
67344;SDS011;54230;52.402;6.276;2022-10-22T01:40:00;11.7;;;7.0;;
67344;SDS011;54230;52.402;6.276;2022-10-22T01:45:00;15.1;;;7.5;;
67344;SDS011;54230;52.402;6.276;2022-10-22T01:50:08;13.9;;;7.1;;
67344;SDS011;54230;52.402;6.276;2022-10-22T01:55:06;14.8;;;7.1;;
67344;SDS011;54230;52.402;6.276;2022-10-22T02:00:00;17.0;;;7.2;;
67344;SDS011;54230;52.402;6.276;2022-10-22T02:05:01;14.1;;;7.3;;
67344;SDS011;54230;52.402;6.276;2022-10-22T02:10:00;12.9;;;7.1;;
67344;SDS011;54230;52.402;6.276;2022-10-22T02:15:00;14.2;;;7.0;;
67344;SDS011;54230;52.402;6.276;2022-10-22T02:20:00;13.2;;;7.2;;
67344;SDS011;54230;52.402;6.276;2022-10-22T02:25:00;13.2;;;7.2;;
67344;SDS011;54230;52.402;6.276;2022-10-22T02:30:00;14.8;;;7.5;;
67344;SDS011;54230;52.402;6.276;2022-10-22T02:35:00;14.7;;;7.7;;
67344;SDS011;54230;52.402;6.276;2022-10-22T02:40:00;13.6;;;7.5;;
67344;SDS011;54230;52.402;6.276;2022-10-22T02:45:00;14.1;;;7.6;;
67344;SDS011;54230;52.402;6.276;2022-10-22T02:50:00;15.8;;;8.2;;
67344;SDS011;54230;52.402;6.276;2022-10-22T02:55:00;14.2;;;8.1;;
67344;SDS011;54230;52.402;6.276;2022-10-22T03:00:00;13.8;;;8.0;;
67344;SDS011;54230;52.402;6.276;2022-10-22T03:05:00;17.4;;;8.7;;
67344;SDS011;54230;52.402;6.276;2022-10-22T03:10:00;16.3;;;8.3;;
67344;SDS011;54230;52.402;6.276;2022-10-22T03:15:00;16.5;;;8.7;;
67344;SDS011;54230;52.402;6.276;2022-10-22T03:20:00;20.5;;;9.0;;
67344;SDS011;54230;52.402;6.276;2022-10-22T03:25:02;16.4;;;8.9;;
67344;SDS011;54230;52.402;6.276;2022-10-22T03:30:00;17.8;;;8.8;;
67344;SDS011;54230;52.402;6.276;2022-10-22T03:35:00;18.8;;;8.9;;
67344;SDS011;54230;52.402;6.276;2022-10-22T03:40:00;15.1;;;8.2;;
67344;SDS011;54230;52.402;6.276;2022-10-22T03:45:00;16.4;;;8.6;;
67344;SDS011;54230;52.402;6.276;2022-10-22T03:50:00;18.4;;;9.0;;
67344;SDS011;54230;52.402;6.276;2022-10-22T03:55:00;18.3;;;8.9;;
67344;SDS011;54230;52.402;6.276;2022-10-22T04:00:00;20.1;;;9.1;;
67344;SDS011;54230;52.402;6.276;2022-10-22T04:05:00;19.6;;;9.0;;
67344;SDS011;54230;52.402;6.276;2022-10-22T04:10:00;18.3;;;8.7;;
67344;SDS011;54230;52.402;6.276;2022-10-22T04:15:00;18.0;;;8.9;;
67344;SDS011;54230;52.402;6.276;2022-10-22T04:20:00;18.8;;;8.9;;
67344;SDS011;54230;52.402;6.276;2022-10-22T04:25:00;16.6;;;9.1;;
67344;SDS011;54230;52.402;6.276;2022-10-22T04:30:00;17.2;;;8.2;;
67344;SDS011;54230;52.402;6.276;2022-10-22T04:35:00;17.3;;;8.5;;
67344;SDS011;54230;52.402;6.276;2022-10-22T04:40:00;16.7;;;8.5;;
67344;SDS011;54230;52.402;6.276;2022-10-22T04:45:00;19.2;;;8.7;;
67344;SDS011;54230;52.402;6.276;2022-10-22T04:50:00;16.1;;;8.4;;
67344;SDS011;54230;52.402;6.276;2022-10-22T04:55:00;15.7;;;8.4;;
67344;SDS011;54230;52.402;6.276;2022-10-22T05:00:00;16.3;;;8.2;;
67344;SDS011;54230;52.402;6.276;2022-10-22T05:05:00;17.6;;;7.2;;
67344;SDS011;54230;52.402;6.276;2022-10-22T05:10:00;15.8;;;7.9;;
67344;SDS011;54230;52.402;6.276;2022-10-22T05:15:00;13.7;;;7.3;;
67344;SDS011;54230;52.402;6.276;2022-10-22T05:20:00;15.7;;;7.2;;
67344;SDS011;54230;52.402;6.276;2022-10-22T05:25:00;16.8;;;7.2;;
67344;SDS011;54230;52.402;6.276;2022-10-22T05:30:00;15.7;;;7.0;;
67344;SDS011;54230;52.402;6.276;2022-10-22T05:35:00;11.6;;;6.5;;
67344;SDS011;54230;52.402;6.276;2022-10-22T05:40:00;13.5;;;7.0;;
67344;SDS011;54230;52.402;6.276;2022-10-22T05:45:00;16.9;;;7.0;;
67344;SDS011;54230;52.402;6.276;2022-10-22T05:50:00;14.3;;;6.9;;
67344;SDS011;54230;52.402;6.276;2022-10-22T05:55:00;14.7;;;7.0;;
67344;SDS011;54230;52.402;6.276;2022-10-22T06:00:00;14.2;;;7.1;;
67344;SDS011;54230;52.402;6.276;2022-10-22T06:05:00;14.8;;;6.8;;
67344;SDS011;54230;52.402;6.276;2022-10-22T06:10:00;13.5;;;7.1;;
67344;SDS011;54230;52.402;6.276;2022-10-22T06:15:00;14.8;;;7.2;;
67344;SDS011;54230;52.402;6.276;2022-10-22T06:20:00;14.5;;;7.1;;
67344;SDS011;54230;52.402;6.276;2022-10-22T06:25:00;14.0;;;7.1;;
67344;SDS011;54230;52.402;6.276;2022-10-22T06:30:00;15.5;;;6.8;;
67344;SDS011;54230;52.402;6.276;2022-10-22T06:35:00;17.5;;;7.1;;
67344;SDS011;54230;52.402;6.276;2022-10-22T06:40:00;19.1;;;7.4;;
67344;SDS011;54230;52.402;6.276;2022-10-22T06:45:00;17.5;;;6.6;;
67344;SDS011;54230;52.402;6.276;2022-10-22T06:50:00;14.8;;;6.6;;
67344;SDS011;54230;52.402;6.276;2022-10-22T06:55:00;13.3;;;6.0;;
67344;SDS011;54230;52.402;6.276;2022-10-22T07:00:00;16.7;;;5.6;;
67344;SDS011;54230;52.402;6.276;2022-10-22T07:05:00;13.5;;;5.7;;
67344;SDS011;54230;52.402;6.276;2022-10-22T07:10:00;13.9;;;6.0;;
67344;SDS011;54230;52.402;6.276;2022-10-22T07:15:00;11.3;;;5.2;;
67344;SDS011;54230;52.402;6.276;2022-10-22T07:20:00;14.6;;;5.6;;
67344;SDS011;54230;52.402;6.276;2022-10-22T07:25:00;16.0;;;5.5;;
67344;SDS011;54230;52.402;6.276;2022-10-22T07:30:00;15.2;;;5.3;;
67344;SDS011;54230;52.402;6.276;2022-10-22T07:35:00;13.2;;;5.3;;
67344;SDS011;54230;52.402;6.276;2022-10-22T07:40:00;13.5;;;4.9;;
67344;SDS011;54230;52.402;6.276;2022-10-22T07:45:00;14.7;;;4.9;;
67344;SDS011;54230;52.402;6.276;2022-10-22T07:50:00;13.2;;;5.3;;
67344;SDS011;54230;52.402;6.276;2022-10-22T07:55:00;15.5;;;4.9;;
67344;SDS011;54230;52.402;6.276;2022-10-22T08:00:00;11.3;;;4.8;;
67344;SDS011;54230;52.402;6.276;2022-10-22T08:05:00;13.1;;;4.6;;
67344;SDS011;54230;52.402;6.276;2022-10-22T08:10:00;14.4;;;4.6;;
67344;SDS011;54230;52.402;6.276;2022-10-22T08:15:00;13.4;;;4.7;;
67344;SDS011;54230;52.402;6.276;2022-10-22T08:20:00;13.0;;;4.5;;
67344;SDS011;54230;52.402;6.276;2022-10-22T08:25:00;11.9;;;4.4;;
67344;SDS011;54230;52.402;6.276;2022-10-22T08:30:00;12.8;;;4.2;;
67344;SDS011;54230;52.402;6.276;2022-10-22T08:35:00;12.6;;;4.1;;
67344;SDS011;54230;52.402;6.276;2022-10-22T08:40:00;11.1;;;4.0;;
67344;SDS011;54230;52.402;6.276;2022-10-22T08:45:02;10.8;;;3.8;;
67344;SDS011;54230;52.402;6.276;2022-10-22T08:50:00;11.1;;;3.6;;
67344;SDS011;54230;52.402;6.276;2022-10-22T08:55:00;10.6;;;3.5;;
67344;SDS011;54230;52.402;6.276;2022-10-22T09:00:01;13.6;;;3.7;;
67344;SDS011;54230;52.402;6.276;2022-10-22T09:05:01;11.4;;;3.1;;
67344;SDS011;54230;52.402;6.276;2022-10-22T09:10:00;10.1;;;3.0;;
67344;SDS011;54230;52.402;6.276;2022-10-22T09:15:00;9.7;;;2.7;;
67344;SDS011;54230;52.402;6.276;2022-10-22T09:20:02;10.3;;;2.9;;
67344;SDS011;54230;52.402;6.276;2022-10-22T09:25:01;10.7;;;3.1;;
67344;SDS011;54230;52.402;6.276;2022-10-22T09:30:00;11.7;;;3.3;;
67344;SDS011;54230;52.402;6.276;2022-10-22T09:35:00;11.5;;;3.1;;
67344;SDS011;54230;52.402;6.276;2022-10-22T09:40:03;10.3;;;3.3;;
67344;SDS011;54230;52.402;6.276;2022-10-22T09:45:00;12.8;;;3.4;;
67344;SDS011;54230;52.402;6.276;2022-10-22T09:50:03;11.9;;;3.3;;
67344;SDS011;54230;52.402;6.276;2022-10-22T09:55:00;14.4;;;3.4;;
67344;SDS011;54230;52.402;6.276;2022-10-22T10:00:00;10.8;;;3.4;;
67344;SDS011;54230;52.402;6.276;2022-10-22T10:05:01;10.8;;;3.3;;
67344;SDS011;54230;52.402;6.276;2022-10-22T10:10:00;11.2;;;3.8;;
67344;SDS011;54230;52.402;6.276;2022-10-22T10:15:02;11.5;;;4.3;;
67344;SDS011;54230;52.402;6.276;2022-10-22T10:20:02;10.3;;;4.0;;
67344;SDS011;54230;52.402;6.276;2022-10-22T10:25:10;11.6;;;4.2;;
67344;SDS011;54230;52.402;6.276;2022-10-22T10:30:00;12.8;;;4.5;;
67344;SDS011;54230;52.402;6.276;2022-10-22T10:35:02;11.0;;;4.3;;
67344;SDS011;54230;52.402;6.276;2022-10-22T10:40:03;10.2;;;3.9;;
67344;SDS011;54230;52.402;6.276;2022-10-22T10:45:02;14.7;;;4.8;;
67344;SDS011;54230;52.402;6.276;2022-10-22T10:50:13;9.9;;;4.3;;
67344;SDS011;54230;52.402;6.276;2022-10-22T10:55:09;15.2;;;4.8;;
67344;SDS011;54230;52.402;6.276;2022-10-22T11:00:02;13.0;;;4.2;;
67344;SDS011;54230;52.402;6.276;2022-10-22T11:05:04;10.7;;;3.8;;
67344;SDS011;54230;52.402;6.276;2022-10-22T11:10:02;16.7;;;3.5;;
67344;SDS011;54230;52.402;6.276;2022-10-22T11:15:00;10.3;;;3.7;;
67344;SDS011;54230;52.402;6.276;2022-10-22T11:20:02;8.7;;;3.4;;
67344;SDS011;54230;52.402;6.276;2022-10-22T11:25:00;12.9;;;3.6;;
67344;SDS011;54230;52.402;6.276;2022-10-22T11:30:02;12.2;;;3.8;;
67344;SDS011;54230;52.402;6.276;2022-10-22T11:35:00;9.8;;;3.4;;
67344;SDS011;54230;52.402;6.276;2022-10-22T11:40:02;14.7;;;3.8;;
67344;SDS011;54230;52.402;6.276;2022-10-22T11:45:00;11.3;;;3.4;;
67344;SDS011;54230;52.402;6.276;2022-10-22T11:50:09;11.7;;;3.2;;
67344;SDS011;54230;52.402;6.276;2022-10-22T11:55:00;9.1;;;3.0;;
67344;SDS011;54230;52.402;6.276;2022-10-22T12:00:00;10.8;;;3.0;;
67344;SDS011;54230;52.402;6.276;2022-10-22T12:10:03;10.0;;;2.9;;
67344;SDS011;54230;52.402;6.276;2022-10-22T12:15:00;9.5;;;3.1;;
67344;SDS011;54230;52.402;6.276;2022-10-22T12:20:01;10.0;;;2.7;;
67344;SDS011;54230;52.402;6.276;2022-10-22T12:25:00;9.1;;;2.4;;
67344;SDS011;54230;52.402;6.276;2022-10-22T12:30:00;9.6;;;2.5;;
67344;SDS011;54230;52.402;6.276;2022-10-22T12:35:02;10.5;;;2.4;;
67344;SDS011;54230;52.402;6.276;2022-10-22T12:40:00;9.9;;;2.5;;
67344;SDS011;54230;52.402;6.276;2022-10-22T12:45:00;11.8;;;2.7;;
67344;SDS011;54230;52.402;6.276;2022-10-22T12:50:00;10.6;;;2.4;;
67344;SDS011;54230;52.402;6.276;2022-10-22T12:55:00;9.1;;;2.6;;
67344;SDS011;54230;52.402;6.276;2022-10-22T13:00:00;9.1;;;2.6;;
67344;SDS011;54230;52.402;6.276;2022-10-22T13:05:08;11.2;;;2.8;;
67344;SDS011;54230;52.402;6.276;2022-10-22T13:10:00;7.5;;;2.1;;
67344;SDS011;54230;52.402;6.276;2022-10-22T13:20:00;9.2;;;1.9;;
67344;SDS011;54230;52.402;6.276;2022-10-22T13:25:03;7.0;;;1.5;;
67344;SDS011;54230;52.402;6.276;2022-10-22T13:30:00;7.2;;;1.5;;
67344;SDS011;54230;52.402;6.276;2022-10-22T13:35:01;8.7;;;1.6;;
67344;SDS011;54230;52.402;6.276;2022-10-22T13:40:00;9.1;;;1.9;;
67344;SDS011;54230;52.402;6.276;2022-10-22T13:45:00;8.9;;;1.9;;
67344;SDS011;54230;52.402;6.276;2022-10-22T13:50:00;10.8;;;1.9;;
67344;SDS011;54230;52.402;6.276;2022-10-22T13:55:00;8.9;;;1.9;;
67344;SDS011;54230;52.402;6.276;2022-10-22T14:00:00;10.5;;;1.8;;
67344;SDS011;54230;52.402;6.276;2022-10-22T14:05:00;10.8;;;2.2;;
67344;SDS011;54230;52.402;6.276;2022-10-22T14:10:00;10.8;;;2.2;;
67344;SDS011;54230;52.402;6.276;2022-10-22T14:15:00;9.0;;;2.2;;
67344;SDS011;54230;52.402;6.276;2022-10-22T14:20:00;10.9;;;2.1;;
67344;SDS011;54230;52.402;6.276;2022-10-22T14:25:00;10.7;;;2.1;;
67344;SDS011;54230;52.402;6.276;2022-10-22T14:30:00;11.2;;;1.9;;
67344;SDS011;54230;52.402;6.276;2022-10-22T14:35:00;9.5;;;2.3;;
67344;SDS011;54230;52.402;6.276;2022-10-22T14:40:00;7.7;;;1.9;;
67344;SDS011;54230;52.402;6.276;2022-10-22T14:45:00;9.3;;;2.0;;
67344;SDS011;54230;52.402;6.276;2022-10-22T14:50:00;8.8;;;2.0;;
67344;SDS011;54230;52.402;6.276;2022-10-22T14:55:00;13.5;;;1.9;;
67344;SDS011;54230;52.402;6.276;2022-10-22T15:00:00;10.2;;;1.9;;
67344;SDS011;54230;52.402;6.276;2022-10-22T15:05:00;10.0;;;2.2;;
67344;SDS011;54230;52.402;6.276;2022-10-22T15:10:00;9.6;;;2.0;;
67344;SDS011;54230;52.402;6.276;2022-10-22T15:15:00;9.6;;;2.1;;
67344;SDS011;54230;52.402;6.276;2022-10-22T15:20:00;12.6;;;2.4;;
67344;SDS011;54230;52.402;6.276;2022-10-22T15:25:00;15.2;;;2.4;;
67344;SDS011;54230;52.402;6.276;2022-10-22T15:30:00;14.4;;;2.4;;
67344;SDS011;54230;52.402;6.276;2022-10-22T15:35:00;10.4;;;2.4;;
67344;SDS011;54230;52.402;6.276;2022-10-22T15:40:00;13.3;;;2.8;;
67344;SDS011;54230;52.402;6.276;2022-10-22T15:45:00;12.2;;;2.4;;
67344;SDS011;54230;52.402;6.276;2022-10-22T15:50:00;12.4;;;2.5;;
67344;SDS011;54230;52.402;6.276;2022-10-22T15:55:00;10.1;;;2.3;;
67344;SDS011;54230;52.402;6.276;2022-10-22T16:00:00;11.7;;;2.7;;
67344;SDS011;54230;52.402;6.276;2022-10-22T16:05:00;10.1;;;3.0;;
67344;SDS011;54230;52.402;6.276;2022-10-22T16:10:00;11.5;;;3.1;;
67344;SDS011;54230;52.402;6.276;2022-10-22T16:15:00;12.6;;;3.8;;
67344;SDS011;54230;52.402;6.276;2022-10-22T16:20:00;13.6;;;3.2;;
67344;SDS011;54230;52.402;6.276;2022-10-22T16:25:00;13.3;;;3.4;;
67344;SDS011;54230;52.402;6.276;2022-10-22T16:30:00;20.1;;;4.0;;
67344;SDS011;54230;52.402;6.276;2022-10-22T16:35:00;13.9;;;3.7;;
67344;SDS011;54230;52.402;6.276;2022-10-22T16:40:00;14.4;;;3.9;;
67344;SDS011;54230;52.402;6.276;2022-10-22T16:45:00;15.0;;;3.8;;
67344;SDS011;54230;52.402;6.276;2022-10-22T16:50:00;15.6;;;3.8;;
67344;SDS011;54230;52.402;6.276;2022-10-22T16:55:00;15.0;;;4.3;;
67344;SDS011;54230;52.402;6.276;2022-10-22T17:00:00;14.6;;;4.4;;
67344;SDS011;54230;52.402;6.276;2022-10-22T17:05:00;14.3;;;4.4;;
67344;SDS011;54230;52.402;6.276;2022-10-22T17:10:00;14.9;;;4.8;;
67344;SDS011;54230;52.402;6.276;2022-10-22T17:15:00;19.4;;;6.5;;
67344;SDS011;54230;52.402;6.276;2022-10-22T17:20:00;14.7;;;6.1;;
67344;SDS011;54230;52.402;6.276;2022-10-22T17:25:05;18.3;;;6.3;;
67344;SDS011;54230;52.402;6.276;2022-10-22T17:30:00;15.1;;;6.0;;
67344;SDS011;54230;52.402;6.276;2022-10-22T17:35:00;15.9;;;6.3;;
67344;SDS011;54230;52.402;6.276;2022-10-22T17:40:00;15.7;;;6.3;;
67344;SDS011;54230;52.402;6.276;2022-10-22T17:45:00;17.9;;;6.5;;
67344;SDS011;54230;52.402;6.276;2022-10-22T17:50:00;15.9;;;6.8;;
67344;SDS011;54230;52.402;6.276;2022-10-22T17:55:00;19.7;;;6.8;;
67344;SDS011;54230;52.402;6.276;2022-10-22T18:00:00;20.3;;;6.9;;
67344;SDS011;54230;52.402;6.276;2022-10-22T18:05:00;18.4;;;6.8;;
67344;SDS011;54230;52.402;6.276;2022-10-22T18:10:00;17.6;;;8.3;;
67344;SDS011;54230;52.402;6.276;2022-10-22T18:15:00;30.0;;;9.9;;
67344;SDS011;54230;52.402;6.276;2022-10-22T18:20:00;18.5;;;8.6;;
67344;SDS011;54230;52.402;6.276;2022-10-22T18:25:00;18.4;;;8.0;;
67344;SDS011;54230;52.402;6.276;2022-10-22T18:30:00;21.0;;;8.2;;
67344;SDS011;54230;52.402;6.276;2022-10-22T18:35:00;22.0;;;8.6;;
67344;SDS011;54230;52.402;6.276;2022-10-22T18:40:00;30.4;;;11.9;;
67344;SDS011;54230;52.402;6.276;2022-10-22T18:45:00;27.9;;;11.0;;
67344;SDS011;54230;52.402;6.276;2022-10-22T18:50:00;23.8;;;10.3;;
67344;SDS011;54230;52.402;6.276;2022-10-22T18:55:00;15.6;;;7.9;;
67344;SDS011;54230;52.402;6.276;2022-10-22T19:00:00;17.5;;;8.2;;
67344;SDS011;54230;52.402;6.276;2022-10-22T19:05:00;17.5;;;8.2;;
67344;SDS011;54230;52.402;6.276;2022-10-22T19:10:00;19.1;;;8.1;;
67344;SDS011;54230;52.402;6.276;2022-10-22T19:15:00;15.8;;;7.3;;
67344;SDS011;54230;52.402;6.276;2022-10-22T19:20:00;16.4;;;7.3;;
67344;SDS011;54230;52.402;6.276;2022-10-22T19:25:00;16.3;;;7.3;;
67344;SDS011;54230;52.402;6.276;2022-10-22T19:30:00;18.2;;;8.2;;
67344;SDS011;54230;52.402;6.276;2022-10-22T19:35:00;16.6;;;8.5;;
67344;SDS011;54230;52.402;6.276;2022-10-22T19:40:00;15.6;;;7.3;;
67344;SDS011;54230;52.402;6.276;2022-10-22T19:45:00;13.5;;;7.6;;
67344;SDS011;54230;52.402;6.276;2022-10-22T19:50:00;12.3;;;6.6;;
67344;SDS011;54230;52.402;6.276;2022-10-22T19:55:00;13.4;;;7.5;;
67344;SDS011;54230;52.402;6.276;2022-10-22T20:00:00;14.1;;;8.1;;
67344;SDS011;54230;52.402;6.276;2022-10-22T20:05:00;14.5;;;8.0;;
67344;SDS011;54230;52.402;6.276;2022-10-22T20:10:00;17.7;;;9.0;;
67344;SDS011;54230;52.402;6.276;2022-10-22T20:15:00;18.4;;;9.2;;
67344;SDS011;54230;52.402;6.276;2022-10-22T20:20:00;17.7;;;9.1;;
67344;SDS011;54230;52.402;6.276;2022-10-22T20:25:00;16.5;;;9.2;;
67344;SDS011;54230;52.402;6.276;2022-10-22T20:30:00;16.0;;;9.2;;
67344;SDS011;54230;52.402;6.276;2022-10-22T20:35:00;16.9;;;9.4;;
67344;SDS011;54230;52.402;6.276;2022-10-22T20:40:00;17.0;;;8.8;;
67344;SDS011;54230;52.402;6.276;2022-10-22T20:45:00;14.2;;;8.7;;
67344;SDS011;54230;52.402;6.276;2022-10-22T20:50:00;18.9;;;9.3;;
67344;SDS011;54230;52.402;6.276;2022-10-22T20:55:00;16.7;;;9.2;;
67344;SDS011;54230;52.402;6.276;2022-10-22T21:00:00;15.2;;;8.9;;
67344;SDS011;54230;52.402;6.276;2022-10-22T21:05:00;17.9;;;8.9;;
67344;SDS011;54230;52.402;6.276;2022-10-22T21:10:00;14.7;;;8.7;;
67344;SDS011;54230;52.402;6.276;2022-10-22T21:15:00;15.0;;;9.0;;
67344;SDS011;54230;52.402;6.276;2022-10-22T21:20:00;15.9;;;8.9;;
67344;SDS011;54230;52.402;6.276;2022-10-22T21:25:00;15.6;;;8.2;;
67344;SDS011;54230;52.402;6.276;2022-10-22T21:30:00;17.5;;;8.2;;
67344;SDS011;54230;52.402;6.276;2022-10-22T21:35:00;12.9;;;7.5;;
67344;SDS011;54230;52.402;6.276;2022-10-22T21:40:00;11.5;;;6.6;;
67344;SDS011;54230;52.402;6.276;2022-10-22T21:45:00;12.7;;;7.1;;
67344;SDS011;54230;52.402;6.276;2022-10-22T21:50:00;13.5;;;7.5;;
67344;SDS011;54230;52.402;6.276;2022-10-22T21:55:00;13.0;;;7.5;;
67344;SDS011;54230;52.402;6.276;2022-10-22T22:00:00;11.3;;;7.7;;
67344;SDS011;54230;52.402;6.276;2022-10-22T22:05:00;10.2;;;6.5;;
67344;SDS011;54230;52.402;6.276;2022-10-22T22:10:00;12.2;;;7.6;;
67344;SDS011;54230;52.402;6.276;2022-10-22T22:15:00;11.1;;;7.3;;
67344;SDS011;54230;52.402;6.276;2022-10-22T22:20:00;12.9;;;7.4;;
67344;SDS011;54230;52.402;6.276;2022-10-22T22:25:00;18.8;;;8.5;;
67344;SDS011;54230;52.402;6.276;2022-10-22T22:30:00;19.1;;;9.9;;
67344;SDS011;54230;52.402;6.276;2022-10-22T22:35:00;18.2;;;9.9;;
67344;SDS011;54230;52.402;6.276;2022-10-22T22:40:00;16.5;;;10.0;;
67344;SDS011;54230;52.402;6.276;2022-10-22T22:45:00;17.0;;;9.8;;
67344;SDS011;54230;52.402;6.276;2022-10-22T22:50:00;17.5;;;9.6;;
67344;SDS011;54230;52.402;6.276;2022-10-22T22:55:00;17.2;;;9.4;;
67344;SDS011;54230;52.402;6.276;2022-10-22T23:00:00;18.8;;;9.7;;
67344;SDS011;54230;52.402;6.276;2022-10-22T23:05:00;17.5;;;9.3;;
67344;SDS011;54230;52.402;6.276;2022-10-22T23:10:00;17.5;;;9.0;;
67344;SDS011;54230;52.402;6.276;2022-10-22T23:15:00;21.3;;;9.6;;
67344;SDS011;54230;52.402;6.276;2022-10-22T23:20:00;17.7;;;8.8;;
67344;SDS011;54230;52.402;6.276;2022-10-22T23:25:00;17.8;;;9.1;;
67344;SDS011;54230;52.402;6.276;2022-10-22T23:30:00;16.6;;;9.1;;
67344;SDS011;54230;52.402;6.276;2022-10-22T23:35:00;15.3;;;8.8;;
67344;SDS011;54230;52.402;6.276;2022-10-22T23:40:00;15.1;;;9.0;;
67344;SDS011;54230;52.402;6.276;2022-10-22T23:45:00;15.4;;;8.5;;
67344;SDS011;54230;52.402;6.276;2022-10-22T23:50:00;13.3;;;8.3;;
67344;SDS011;54230;52.402;6.276;2022-10-22T23:55:00;15.3;;;8.7;;
